createdAt,value
2023-03-17T00:01:24.928Z,4.40
2023-03-17T00:03:52.862Z,8.68
2023-03-17T00:06:29.153Z,8.20
2023-03-17T00:08:57.545Z,4.45
2023-03-17T00:11:28.619Z,9.98
2023-03-17T00:13:56.662Z,5.93
2023-03-17T00:16:27.062Z,6.72
2023-03-17T00:18:56.730Z,3.05
2023-03-17T00:21:28.185Z,4.65
2023-03-17T00:23:56.993Z,5.22
2023-03-17T00:26:26.856Z,6.13
2023-03-17T00:28:57.250Z,5.13
2023-03-17T00:31:29.352Z,4.35
2023-03-17T00:33:58.537Z,4.43
2023-03-17T00:36:29.422Z,3.92
2023-03-17T00:38:58.390Z,6.22
2023-03-17T00:41:29.472Z,5.78
2023-03-17T00:43:57.639Z,4.93
2023-03-17T00:46:28.719Z,3.92
2023-03-17T00:51:25.891Z,4.25
2023-03-17T00:53:55.763Z,5.07
2023-03-17T00:56:23.713Z,5.43
2023-03-17T00:58:53.058Z,4.50
2023-03-17T01:01:20.929Z,8.55
2023-03-17T01:03:49.063Z,4.20
2023-03-17T01:06:17.922Z,6.90
2023-03-17T01:08:46.507Z,4.70
2023-03-17T01:11:18.710Z,4.90
2023-03-17T01:13:48.537Z,5.60
2023-03-17T01:16:18.027Z,4.55
2023-03-17T01:18:46.164Z,6.15
2023-03-17T01:21:14.081Z,7.40
2023-03-17T01:23:43.594Z,6.53
2023-03-17T01:26:11.706Z,3.75
2023-03-17T01:28:39.577Z,4.32
2023-03-17T01:31:07.327Z,6.03
2023-03-17T01:33:36.640Z,5.05
2023-03-17T01:36:04.511Z,6.30
2023-03-17T01:38:32.553Z,5.13
2023-03-17T01:41:02.033Z,5.95
2023-03-17T01:43:31.046Z,4.80
2023-03-17T01:46:21.861Z,6.50
2023-03-17T01:48:58.700Z,6.13
2023-03-17T01:51:32.957Z,11.10
2023-03-17T01:54:03.508Z,4.93
2023-03-17T01:56:32.019Z,5.60
2023-03-17T01:59:03.840Z,9.35
2023-03-17T02:01:38.622Z,6.30
2023-03-17T02:04:09.557Z,4.75
2023-03-17T02:06:47.483Z,6.40
2023-03-17T02:09:23.154Z,5.55
2023-03-17T02:11:51.659Z,7.05
2023-03-17T02:14:20.516Z,4.50
2023-03-17T02:16:48.535Z,4.55
2023-03-17T02:19:18.677Z,7.20
2023-03-17T02:21:51.363Z,8.07
2023-03-17T02:26:56.493Z,8.52
2023-03-17T02:29:24.702Z,4.80
2023-03-17T02:31:52.605Z,6.47
2023-03-17T02:34:22.330Z,6.05
2023-03-17T02:36:51.508Z,5.40
2023-03-17T02:39:19.419Z,5.15
2023-03-17T02:41:47.987Z,3.45
2023-03-17T02:44:16.127Z,5.05
2023-03-17T02:46:44.014Z,5.55
2023-03-17T02:49:12.859Z,5.13
2023-03-17T02:51:40.908Z,8.02
2023-03-17T02:54:10.159Z,5.05
2023-03-17T02:56:38.256Z,6.03
2023-03-17T02:59:07.211Z,4.18
2023-03-17T03:01:35.587Z,5.53
2023-03-17T03:04:03.898Z,5.85
2023-03-17T03:06:32.743Z,3.65
2023-03-17T03:09:00.519Z,6.78
2023-03-17T03:11:29.657Z,8.02
2023-03-17T03:13:57.495Z,4.70
2023-03-17T03:16:25.798Z,5.90
2023-03-17T03:18:53.531Z,6.93
2023-03-17T03:21:22.089Z,18.27
2023-03-17T03:23:50.418Z,12.48
2023-03-17T03:26:18.226Z,12.02
2023-03-17T03:28:47.450Z,10.95
2023-03-17T03:31:15.376Z,5.38
2023-03-17T03:33:44.091Z,7.65
2023-03-17T03:36:13.366Z,6.55
2023-03-17T03:38:41.628Z,4.35
2023-03-17T03:41:09.493Z,7.30
2023-03-17T03:43:37.523Z,4.57
2023-03-17T03:46:06.729Z,4.47
2023-03-17T03:48:35.053Z,5.03
2023-03-17T03:51:04.052Z,5.65
2023-03-17T03:53:32.239Z,5.28
2023-03-17T03:56:00.061Z,5.82
2023-03-17T03:58:27.990Z,7.47
2023-03-17T04:00:55.745Z,4.82
2023-03-17T04:03:25.182Z,4.50
2023-03-17T04:05:53.035Z,3.97
2023-03-17T04:08:20.921Z,6.30
2023-03-17T04:10:48.802Z,5.15
2023-03-17T04:13:16.603Z,8.48
2023-03-17T04:15:44.398Z,6.95
2023-03-17T04:18:13.027Z,4.63
2023-03-17T04:20:42.395Z,7.03
2023-03-17T04:23:10.112Z,6.85
2023-03-17T04:25:38.067Z,5.00
2023-03-17T04:28:06.453Z,4.65
2023-03-17T04:30:34.479Z,6.45
2023-03-17T04:33:02.420Z,6.57
2023-03-17T04:35:31.373Z,8.85
2023-03-17T04:38:00.493Z,3.53
2023-03-17T04:40:28.695Z,8.27
2023-03-17T04:42:56.553Z,6.05
2023-03-17T04:45:24.560Z,4.93
2023-03-17T04:47:52.416Z,4.32
2023-03-17T04:50:20.365Z,2.90
2023-03-17T04:52:48.235Z,3.33
2023-03-17T04:55:17.568Z,8.68
2023-03-17T04:57:45.893Z,3.30
2023-03-17T05:00:15.561Z,4.15
2023-03-17T05:02:44.100Z,4.28
2023-03-17T05:05:12.253Z,3.33
2023-03-17T05:07:40.377Z,4.40
2023-03-17T05:10:09.408Z,6.15
2023-03-17T05:12:38.842Z,3.92
2023-03-17T05:15:07.758Z,5.20
2023-03-17T05:17:35.600Z,4.40
2023-03-17T05:20:04.251Z,3.97
2023-03-17T05:22:32.052Z,3.58
2023-03-17T05:24:59.855Z,5.57
2023-03-17T05:27:27.683Z,5.00
2023-03-17T05:29:57.254Z,3.63
2023-03-17T05:32:25.774Z,5.93
2023-03-17T05:34:53.677Z,7.03
2023-03-17T05:37:21.592Z,4.45
2023-03-17T05:39:49.651Z,4.55
2023-03-17T05:42:17.450Z,4.38
2023-03-17T05:44:45.268Z,4.88
2023-03-17T05:47:14.692Z,4.25
2023-03-17T05:49:42.492Z,7.70
2023-03-17T05:52:10.872Z,5.55
2023-03-17T05:54:38.633Z,6.68
2023-03-17T05:57:06.595Z,6.40
2023-03-17T05:59:34.907Z,5.30
2023-03-17T06:02:03.112Z,6.53
2023-03-17T06:04:32.850Z,9.15
2023-03-17T06:07:00.701Z,4.75
2023-03-17T06:09:28.472Z,5.97
2023-03-17T06:11:56.257Z,6.30
2023-03-17T06:14:26.997Z,6.55
2023-03-17T06:16:55.557Z,4.50
2023-03-17T06:19:23.645Z,3.72
2023-03-17T06:21:53.274Z,10.20
2023-03-17T06:24:21.142Z,5.10
2023-03-17T06:26:49.016Z,5.05
2023-03-17T06:29:16.840Z,6.28
2023-03-17T06:31:50.461Z,5.47
2023-03-17T06:34:18.673Z,3.60
2023-03-17T06:36:46.577Z,4.13
2023-03-17T06:39:16.714Z,8.93
2023-03-17T06:41:44.638Z,5.78
2023-03-17T06:44:13.144Z,5.03
2023-03-17T06:46:41.006Z,6.43
2023-03-17T06:49:09.362Z,5.15
2023-03-17T06:51:37.386Z,3.85
2023-03-17T06:54:05.143Z,3.15
2023-03-17T06:56:34.351Z,6.03
2023-03-17T06:59:02.196Z,5.00
2023-03-17T07:01:30.039Z,5.20
2023-03-17T07:03:57.845Z,5.05
2023-03-17T07:06:25.744Z,4.07
2023-03-17T07:08:53.649Z,4.57
2023-03-17T07:11:23.517Z,4.20
2023-03-17T07:13:53.160Z,3.55
2023-03-17T07:16:21.260Z,3.80
2023-03-17T07:18:49.726Z,3.80
2023-03-17T07:21:17.632Z,11.48
2023-03-17T07:23:45.444Z,6.22
2023-03-17T07:26:13.312Z,3.72
2023-03-17T07:28:41.249Z,2.78
2023-03-17T07:31:14.116Z,2.15
2023-03-17T07:33:42.540Z,4.93
2023-03-17T07:36:10.565Z,4.75
2023-03-17T07:38:38.543Z,4.20
2023-03-17T07:41:09.859Z,2.42
2023-03-17T07:43:39.231Z,2.97
2023-03-17T07:46:07.448Z,4.72
2023-03-17T07:48:40.830Z,3.45
2023-03-17T07:51:13.707Z,5.70
2023-03-17T07:56:10.270Z,2.75
2023-03-17T07:58:38.295Z,6.45
2023-03-17T08:01:06.934Z,2.90
2023-03-17T08:03:37.683Z,5.00
2023-03-17T08:06:08.650Z,3.65
2023-03-17T08:08:36.951Z,6.20
2023-03-17T08:11:06.277Z,2.83
2023-03-17T08:13:34.645Z,4.03
2023-03-17T08:16:02.700Z,3.58
2023-03-17T08:18:30.934Z,6.03
2023-03-17T08:21:00.199Z,5.03
2023-03-17T08:23:28.013Z,3.58
2023-03-17T08:25:58.106Z,2.78
2023-03-17T08:28:27.135Z,4.03
2023-03-17T08:30:55.809Z,6.22
2023-03-17T08:33:23.789Z,2.88
2023-03-17T08:35:52.154Z,5.15
2023-03-17T08:38:21.299Z,5.32
2023-03-17T08:40:50.500Z,5.47
2023-03-17T08:43:18.713Z,3.92
2023-03-17T08:45:46.610Z,2.58
2023-03-17T08:48:15.341Z,3.47
2023-03-17T08:50:43.336Z,4.72
2023-03-17T08:53:11.908Z,6.68
2023-03-17T08:55:41.249Z,5.15
2023-03-17T08:58:09.409Z,3.13
2023-03-17T09:00:37.417Z,3.08
2023-03-17T09:03:05.806Z,6.28
2023-03-17T09:05:36.211Z,5.20
2023-03-17T09:08:05.691Z,3.20
2023-03-17T09:10:33.955Z,3.22
2023-03-17T09:13:04.628Z,3.45
2023-03-17T09:15:33.918Z,5.43
2023-03-17T09:18:03.197Z,3.88
2023-03-17T09:20:31.620Z,3.85
2023-03-17T09:23:00.351Z,3.13
2023-03-17T09:25:28.540Z,3.65
2023-03-17T09:27:56.612Z,3.17
2023-03-17T09:30:26.955Z,3.40
2023-03-17T09:32:54.874Z,3.65
2023-03-17T09:35:22.801Z,3.25
2023-03-17T09:37:51.531Z,3.65
2023-03-17T09:40:22.595Z,2.97
2023-03-17T09:42:57.985Z,5.07
2023-03-17T09:45:34.681Z,4.28
2023-03-17T09:48:23.580Z,2.47
2023-03-17T09:50:56.710Z,3.13
2023-03-17T09:53:28.259Z,3.10
2023-03-17T09:55:59.811Z,5.03
2023-03-17T09:58:32.942Z,4.93
2023-03-17T10:01:05.216Z,4.40
2023-03-17T10:03:34.397Z,4.53
2023-03-17T10:06:17.359Z,3.97
2023-03-17T10:08:52.417Z,4.45
2023-03-17T10:11:30.457Z,4.18
2023-03-17T10:14:03.336Z,5.13
2023-03-17T10:16:42.882Z,3.60
2023-03-17T10:19:27.068Z,4.22
2023-03-17T10:21:59.642Z,3.03
2023-03-17T10:27:00.327Z,3.58
2023-03-17T10:29:29.017Z,2.88
2023-03-17T10:31:58.971Z,4.03
2023-03-17T10:34:29.708Z,3.53
2023-03-17T10:37:02.181Z,4.72
2023-03-17T10:39:32.751Z,3.72
2023-03-17T10:42:09.668Z,3.75
2023-03-17T10:44:45.039Z,4.25
2023-03-17T10:47:29.751Z,3.22
2023-03-17T10:49:58.670Z,2.47
2023-03-17T10:52:28.850Z,3.65
2023-03-17T10:55:01.881Z,3.88
2023-03-17T10:57:31.140Z,4.28
2023-03-17T11:00:02.456Z,3.60
2023-03-17T11:02:37.322Z,3.92
2023-03-17T11:05:09.475Z,3.38
2023-03-17T11:07:39.455Z,6.88
2023-03-17T11:10:19.309Z,6.03
2023-03-17T11:12:50.341Z,5.03
2023-03-17T11:15:20.194Z,2.08
2023-03-17T11:17:55.907Z,3.17
2023-03-17T11:20:45.810Z,4.80
2023-03-17T11:23:37.000Z,4.00
2023-03-17T11:26:17.479Z,2.25
2023-03-17T11:28:51.179Z,3.20
2023-03-17T11:31:28.527Z,2.15
2023-03-17T11:34:08.650Z,2.63
2023-03-17T11:36:59.711Z,1.67
2023-03-17T11:39:31.255Z,3.13
2023-03-17T11:42:10.591Z,2.45
2023-03-17T11:45:09.628Z,4.05
2023-03-17T11:47:46.802Z,2.92
2023-03-17T11:50:26.533Z,3.72
2023-03-17T11:53:09.810Z,2.95
2023-03-17T11:55:46.216Z,4.78
2023-03-17T11:58:19.657Z,2.08
2023-03-17T12:00:52.525Z,2.70
2023-03-17T12:03:25.782Z,3.40
2023-03-17T12:05:59.460Z,3.13
2023-03-17T12:08:36.146Z,2.53
2023-03-17T12:11:10.540Z,2.33
2023-03-17T12:13:43.069Z,2.75
2023-03-17T12:16:17.377Z,3.25
2023-03-17T12:18:58.206Z,2.92
2023-03-17T12:21:36.864Z,3.97
2023-03-17T12:24:12.661Z,4.50
2023-03-17T12:26:48.532Z,4.60
2023-03-17T12:29:21.976Z,2.22
2023-03-17T12:31:56.232Z,2.88
2023-03-17T12:34:32.923Z,5.38
2023-03-17T12:37:03.520Z,3.75
2023-03-17T12:39:34.602Z,3.65
2023-03-17T12:42:22.410Z,2.45
2023-03-17T12:45:16.374Z,3.17
2023-03-17T12:47:55.439Z,2.08
2023-03-17T12:50:54.957Z,6.03
2023-03-17T12:53:30.458Z,3.85
2023-03-17T12:56:03.632Z,7.50
2023-03-17T12:58:36.789Z,5.57
2023-03-17T13:01:17.333Z,3.05
2023-03-17T13:04:02.248Z,2.90
2023-03-17T13:06:40.177Z,4.90
2023-03-17T13:09:31.519Z,3.97
2023-03-17T13:12:00.367Z,2.45
2023-03-17T13:14:41.807Z,2.35
2023-03-17T13:17:34.229Z,3.10
2023-03-17T13:20:14.484Z,2.55
2023-03-17T13:23:01.535Z,2.83
2023-03-17T13:25:35.065Z,1.48
2023-03-17T13:28:27.944Z,7.68
2023-03-17T13:31:12.359Z,3.95
2023-03-17T13:33:46.701Z,2.38
2023-03-17T13:36:31.523Z,4.78
2023-03-17T13:39:22.961Z,3.63
2023-03-17T13:42:17.745Z,5.65
2023-03-17T13:45:33.419Z,4.20
2023-03-17T13:48:32.982Z,5.05
2023-03-17T13:51:04.041Z,3.30
2023-03-17T13:53:37.360Z,2.97
2023-03-17T13:56:12.062Z,1.45
2023-03-17T13:58:54.042Z,1.60
2023-03-17T14:01:23.784Z,2.50
2023-03-17T14:03:54.022Z,1.48
2023-03-17T14:06:28.005Z,2.75
2023-03-17T14:09:00.372Z,5.78
2023-03-17T14:14:31.206Z,2.28
2023-03-17T14:17:06.102Z,2.00
2023-03-17T14:19:33.981Z,4.22
2023-03-17T14:22:19.294Z,2.65
2023-03-17T14:24:51.628Z,3.97
2023-03-17T14:27:19.766Z,3.65
2023-03-17T14:29:49.052Z,3.20
2023-03-17T14:32:19.738Z,2.67
2023-03-17T14:34:52.906Z,5.07
2023-03-17T14:37:21.336Z,3.17
2023-03-17T14:39:52.203Z,3.65
2023-03-17T14:42:26.850Z,7.25
2023-03-17T14:45:03.659Z,2.63
2023-03-17T14:47:37.929Z,10.68
2023-03-17T14:50:15.035Z,2.72
2023-03-17T14:52:43.039Z,2.53
2023-03-17T14:55:15.901Z,3.05
2023-03-17T14:57:49.241Z,2.30
2023-03-17T15:00:31.773Z,2.75
2023-03-17T15:03:02.259Z,3.72
2023-03-17T15:05:38.311Z,1.52
2023-03-17T15:08:40.979Z,2.38
2023-03-17T15:11:09.676Z,2.70
2023-03-17T15:13:39.055Z,3.00
2023-03-17T15:16:18.629Z,2.30
2023-03-17T15:18:47.236Z,2.40
2023-03-17T15:21:30.647Z,2.00
2023-03-17T15:23:58.482Z,8.80
2023-03-17T15:26:32.118Z,2.58
2023-03-17T15:29:01.072Z,2.90
2023-03-17T15:31:30.703Z,4.57
2023-03-17T15:33:59.690Z,2.38
2023-03-17T15:36:32.648Z,3.75
2023-03-17T15:39:01.639Z,2.95
2023-03-17T15:41:29.436Z,2.35
2023-03-17T15:43:57.250Z,2.28
2023-03-17T15:46:32.207Z,2.63
2023-03-17T15:49:01.548Z,3.33
2023-03-17T15:51:29.357Z,2.40
2023-03-17T15:53:57.303Z,4.88
2023-03-17T15:56:25.963Z,1.77
2023-03-17T15:58:53.976Z,2.40
2023-03-17T16:01:22.081Z,3.80
2023-03-17T16:03:50.509Z,3.65
2023-03-17T16:06:22.368Z,2.55
2023-03-17T16:08:51.173Z,3.63
2023-03-17T16:11:22.759Z,3.17
2023-03-17T16:13:50.579Z,5.43
2023-03-17T16:16:22.627Z,2.35
2023-03-17T16:18:52.495Z,2.33
2023-03-17T16:21:22.325Z,2.70
2023-03-17T16:23:50.627Z,3.40
2023-03-17T16:26:18.659Z,9.25
2023-03-17T16:28:47.661Z,2.78
2023-03-17T16:31:22.390Z,2.13
2023-03-17T16:33:51.488Z,2.80
2023-03-17T16:36:23.880Z,2.90
2023-03-17T16:38:52.129Z,2.95
2023-03-17T16:41:22.791Z,2.95
2023-03-17T16:43:53.643Z,2.25
2023-03-17T16:46:22.688Z,2.47
2023-03-17T16:48:51.506Z,2.40
2023-03-17T16:51:20.102Z,2.13
2023-03-17T16:53:49.287Z,3.17
2023-03-17T16:56:19.975Z,1.92
2023-03-17T16:58:49.131Z,2.42
2023-03-17T17:01:20.916Z,2.45
2023-03-17T17:03:49.634Z,4.32
2023-03-17T17:06:19.364Z,7.25
2023-03-17T17:08:50.295Z,2.60
2023-03-17T17:11:19.879Z,3.90
2023-03-17T17:13:49.015Z,3.38
2023-03-17T17:16:22.724Z,6.35
2023-03-17T17:18:50.911Z,3.80
2023-03-17T17:21:18.721Z,3.33
2023-03-17T17:23:46.562Z,1.90
2023-03-17T17:26:16.410Z,4.18
2023-03-17T17:28:44.244Z,15.15
2023-03-17T17:31:12.291Z,4.32
2023-03-17T17:33:41.229Z,6.07
2023-03-17T17:36:14.481Z,3.95
2023-03-17T17:38:42.899Z,4.40
2023-03-17T17:41:12.286Z,4.22
2023-03-17T17:43:42.044Z,4.60
2023-03-17T17:46:13.526Z,3.85
2023-03-17T17:48:41.332Z,5.90
2023-03-17T17:51:09.114Z,6.75
2023-03-17T17:53:37.149Z,6.05
2023-03-17T17:56:05.735Z,7.68
2023-03-17T17:58:33.631Z,5.82
2023-03-17T18:01:04.725Z,3.70
2023-03-17T18:03:32.598Z,6.30
2023-03-17T18:06:01.368Z,5.05
2023-03-17T18:08:29.425Z,4.72
2023-03-17T18:10:57.300Z,5.80
2023-03-17T18:13:25.294Z,6.40
2023-03-17T18:15:53.157Z,5.00
2023-03-17T18:18:22.264Z,4.15
2023-03-17T18:20:50.836Z,3.75
2023-03-17T18:23:20.165Z,3.08
2023-03-17T18:25:48.151Z,3.45
2023-03-17T18:28:16.259Z,4.03
2023-03-17T18:30:45.515Z,2.72
2023-03-17T18:33:17.431Z,3.03
2023-03-17T18:35:48.665Z,2.72
2023-03-17T18:38:16.850Z,5.07
2023-03-17T18:40:45.027Z,4.32
2023-03-17T18:43:12.852Z,4.35
2023-03-17T18:45:40.656Z,3.65
2023-03-17T18:48:08.526Z,4.40
2023-03-17T18:50:37.001Z,3.60
2023-03-17T18:53:06.140Z,3.95
2023-03-17T18:55:33.935Z,2.35
2023-03-17T18:58:01.926Z,7.80
2023-03-17T19:00:30.020Z,3.25
2023-03-17T19:02:58.033Z,2.83
2023-03-17T19:05:26.558Z,6.05
2023-03-17T19:07:54.310Z,5.60
2023-03-17T19:10:23.492Z,4.07
2023-03-17T19:12:52.124Z,3.15
2023-03-17T19:15:20.691Z,4.68
2023-03-17T19:17:50.279Z,8.25
2023-03-17T19:20:18.794Z,6.43
2023-03-17T19:22:46.665Z,5.53
2023-03-17T19:25:14.493Z,1.60
2023-03-17T19:27:43.623Z,6.40
2023-03-17T19:30:13.024Z,5.00
2023-03-17T19:32:41.304Z,5.88
2023-03-17T19:35:09.750Z,3.83
2023-03-17T19:37:38.139Z,2.80
2023-03-17T19:40:08.451Z,8.00
2023-03-17T19:42:36.421Z,7.78
2023-03-17T19:45:06.835Z,11.52
2023-03-17T19:47:34.738Z,6.07
2023-03-17T19:50:02.690Z,8.75
2023-03-17T19:52:30.481Z,9.95
2023-03-17T19:54:58.561Z,7.80
2023-03-17T19:57:26.456Z,8.27
2023-03-17T19:59:54.252Z,6.70
2023-03-17T20:02:23.476Z,6.35
2023-03-17T20:04:51.404Z,7.28
2023-03-17T20:07:19.335Z,9.05
2023-03-17T20:09:48.499Z,10.60
2023-03-17T20:12:16.466Z,9.23
2023-03-17T20:14:44.281Z,5.95
2023-03-17T20:17:12.240Z,4.97
2023-03-17T20:19:41.443Z,6.70
2023-03-17T20:22:09.241Z,7.85
2023-03-17T20:24:38.263Z,7.88
2023-03-17T20:27:07.960Z,9.73
2023-03-17T20:29:35.854Z,6.22
2023-03-17T20:32:04.714Z,6.30
2023-03-17T20:34:34.579Z,7.28
2023-03-17T20:37:04.269Z,8.57
2023-03-17T20:39:32.463Z,6.75
2023-03-17T20:42:01.525Z,14.48
2023-03-17T20:44:29.346Z,22.92
2023-03-17T20:46:57.780Z,14.93
2023-03-17T20:49:25.716Z,14.63
2023-03-17T20:51:53.503Z,15.48
2023-03-17T20:54:23.272Z,21.35
2023-03-17T20:56:53.599Z,17.85
2023-03-17T20:59:21.452Z,14.50
2023-03-17T21:01:49.894Z,11.07
2023-03-17T21:04:18.070Z,12.95
2023-03-17T21:06:45.922Z,8.98
2023-03-17T21:09:14.033Z,10.40
2023-03-17T21:11:43.264Z,10.10
2023-03-17T21:14:13.935Z,8.75
2023-03-17T21:16:44.780Z,7.13
2023-03-17T21:19:15.403Z,8.07
2023-03-17T21:21:43.205Z,9.60
2023-03-17T21:24:27.379Z,9.93
2023-03-17T21:26:56.587Z,7.13
2023-03-17T21:29:24.465Z,5.97
2023-03-17T21:31:52.596Z,7.15
2023-03-17T21:34:20.472Z,9.00
2023-03-17T21:36:48.374Z,10.15
2023-03-17T21:39:16.585Z,9.23
2023-03-17T21:41:46.205Z,5.68
2023-03-17T21:44:17.685Z,9.05
2023-03-17T21:46:46.292Z,5.93
2023-03-17T21:49:16.097Z,7.10
2023-03-17T21:51:44.318Z,7.65
2023-03-17T21:54:12.354Z,6.82
2023-03-17T21:56:41.360Z,6.28
2023-03-17T21:59:10.966Z,9.02
2023-03-17T22:01:40.513Z,8.50
2023-03-17T22:04:09.172Z,6.90
2023-03-17T22:06:37.000Z,5.13
2023-03-17T22:09:05.279Z,5.50
2023-03-17T22:11:33.010Z,4.05
2023-03-17T22:14:01.885Z,4.15
2023-03-17T22:16:30.073Z,3.92
2023-03-17T22:18:59.276Z,7.85
2023-03-17T22:21:28.874Z,6.53
2023-03-17T22:23:56.731Z,10.57
2023-03-17T22:26:24.448Z,7.95
2023-03-17T22:28:52.294Z,8.60
2023-03-17T22:31:22.558Z,5.10
2023-03-17T22:33:52.329Z,8.55
2023-03-17T22:36:22.078Z,5.78
2023-03-17T22:38:50.309Z,6.32
2023-03-17T22:41:20.580Z,8.00
2023-03-17T22:43:48.490Z,7.70
2023-03-17T22:46:16.851Z,9.13
2023-03-17T22:48:46.093Z,6.20
2023-03-17T22:51:16.418Z,5.13
2023-03-17T22:53:46.208Z,6.13
2023-03-17T22:56:15.829Z,4.72
2023-03-17T22:58:44.638Z,6.03
2023-03-17T23:01:13.994Z,8.68
2023-03-17T23:06:37.960Z,8.75
2023-03-17T23:09:05.869Z,7.28
2023-03-17T23:11:33.692Z,7.85
2023-03-17T23:14:01.532Z,9.68
2023-03-17T23:16:30.097Z,7.60
2023-03-17T23:18:57.968Z,11.25
2023-03-17T23:21:30.142Z,13.55
2023-03-17T23:23:59.602Z,7.53
2023-03-17T23:26:28.248Z,6.63
2023-03-17T23:28:56.077Z,7.05
2023-03-17T23:31:24.724Z,9.23
2023-03-17T23:33:52.638Z,6.85
2023-03-17T23:36:21.382Z,7.05
2023-03-17T23:38:50.253Z,6.38
2023-03-17T23:41:19.956Z,7.40
2023-03-17T23:43:47.713Z,8.68
2023-03-17T23:46:15.562Z,5.45
2023-03-17T23:48:44.510Z,6.65
2023-03-17T23:51:14.262Z,6.45
2023-03-17T23:53:42.935Z,5.32
2023-03-17T23:56:12.983Z,11.07
2023-03-17T23:58:43.334Z,6.22
